createdAt,value
2023-05-06T00:01:01.585Z,6.38
2023-05-06T00:03:28.995Z,6.63
2023-05-06T00:05:59.116Z,4.72
2023-05-06T00:08:26.617Z,4.68
2023-05-06T00:10:54.106Z,4.60
2023-05-06T00:13:21.330Z,3.58
2023-05-06T00:15:48.442Z,5.72
2023-05-06T00:18:15.615Z,6.97
2023-05-06T00:20:43.171Z,4.72
2023-05-06T00:23:10.250Z,4.22
2023-05-06T00:25:37.202Z,5.20
2023-05-06T00:28:04.490Z,4.90
2023-05-06T00:30:37.043Z,4.47
2023-05-06T00:33:04.154Z,5.85
2023-05-06T00:35:34.218Z,4.88
2023-05-06T00:38:13.397Z,3.75
2023-05-06T00:40:43.165Z,5.55
2023-05-06T00:43:10.503Z,6.25
2023-05-06T00:45:40.057Z,7.18
2023-05-06T00:48:38.974Z,5.78
2023-05-06T00:51:06.073Z,4.63
2023-05-06T00:53:37.912Z,4.07
2023-05-06T00:56:05.660Z,4.32
2023-05-06T00:58:34.319Z,5.25
2023-05-06T01:01:04.410Z,4.85
2023-05-06T01:03:38.246Z,3.95
2023-05-06T01:09:47.607Z,7.15
2023-05-06T01:15:23.218Z,4.97
2023-05-06T01:17:57.490Z,6.53
2023-05-06T01:20:31.241Z,6.90
2023-05-06T01:22:58.479Z,4.53
2023-05-06T01:25:25.627Z,6.07
2023-05-06T01:27:52.923Z,4.60
2023-05-06T01:30:23.007Z,6.25
2023-05-06T01:32:49.959Z,6.50
2023-05-06T01:35:48.531Z,6.28
2023-05-06T01:38:34.221Z,5.40
2023-05-06T01:41:03.191Z,4.70
2023-05-06T01:43:35.162Z,4.70
2023-05-06T01:46:03.529Z,5.53
2023-05-06T01:48:35.713Z,5.95
2023-05-06T01:51:03.449Z,5.72
2023-05-06T01:53:30.419Z,5.32
2023-05-06T01:55:57.333Z,5.70
2023-05-06T01:58:24.071Z,6.15
2023-05-06T02:00:51.058Z,4.20
2023-05-06T02:03:17.868Z,4.90
2023-05-06T02:05:50.173Z,4.78
2023-05-06T02:08:27.234Z,4.70
2023-05-06T02:10:54.218Z,6.18
2023-05-06T02:13:30.468Z,5.63
2023-05-06T02:15:57.637Z,4.65
2023-05-06T02:18:25.800Z,7.97
2023-05-06T02:20:53.578Z,6.22
2023-05-06T02:23:20.935Z,5.00
2023-05-06T02:25:52.117Z,4.70
2023-05-06T02:28:19.521Z,4.93
2023-05-06T02:30:53.709Z,5.50
2023-05-06T02:33:22.530Z,4.82
2023-05-06T02:35:59.895Z,5.88
2023-05-06T02:38:27.123Z,4.18
2023-05-06T02:40:54.130Z,4.05
2023-05-06T02:43:21.015Z,5.32
2023-05-06T02:45:48.143Z,4.35
2023-05-06T02:48:15.218Z,5.30
2023-05-06T02:50:42.150Z,4.55
2023-05-06T02:53:10.802Z,6.03
2023-05-06T02:55:43.044Z,7.07
2023-05-06T02:58:13.643Z,9.57
2023-05-06T03:00:40.499Z,6.53
2023-05-06T03:03:07.366Z,5.28
2023-05-06T03:05:34.612Z,5.35
2023-05-06T03:08:02.669Z,6.32
2023-05-06T03:10:40.374Z,6.32
2023-05-06T03:13:11.141Z,6.78
2023-05-06T03:15:38.154Z,6.05
2023-05-06T03:18:05.116Z,5.72
2023-05-06T03:20:34.541Z,7.15
2023-05-06T03:23:07.201Z,6.38
2023-05-06T03:25:34.563Z,5.97
2023-05-06T03:28:03.159Z,7.25
2023-05-06T03:33:13.878Z,8.40
2023-05-06T03:35:41.217Z,5.38
2023-05-06T03:38:08.347Z,5.65
2023-05-06T03:40:35.881Z,5.13
2023-05-06T03:43:02.887Z,5.70
2023-05-06T03:45:29.922Z,5.70
2023-05-06T03:47:58.475Z,4.57
2023-05-06T03:50:33.640Z,5.90
2023-05-06T03:53:01.126Z,8.00
2023-05-06T03:55:31.368Z,6.05
2023-05-06T03:57:58.402Z,6.13
2023-05-06T04:00:26.771Z,7.75
2023-05-06T04:02:53.913Z,7.28
2023-05-06T04:05:21.160Z,7.47
2023-05-06T04:07:49.353Z,7.50
2023-05-06T04:10:16.576Z,6.78
2023-05-06T04:12:46.551Z,13.95
2023-05-06T04:15:19.043Z,4.88
2023-05-06T04:17:55.261Z,11.55
2023-05-06T04:20:24.068Z,8.88
2023-05-06T04:22:51.287Z,6.78
2023-05-06T04:25:20.370Z,4.80
2023-05-06T04:27:51.211Z,6.38
2023-05-06T04:30:22.913Z,9.88
2023-05-06T04:32:50.623Z,7.80
2023-05-06T04:35:23.324Z,4.07
2023-05-06T04:37:50.682Z,4.03
2023-05-06T04:40:27.809Z,6.97
2023-05-06T04:42:56.213Z,8.00
2023-05-06T04:47:58.339Z,9.32
2023-05-06T04:50:25.030Z,9.50
2023-05-06T04:55:50.078Z,11.32
2023-05-06T04:58:20.859Z,8.70
2023-05-06T05:00:48.290Z,8.13
2023-05-06T05:03:21.688Z,10.90
2023-05-06T05:06:01.596Z,8.77
2023-05-06T05:08:38.531Z,10.77
2023-05-06T05:11:12.000Z,9.98
2023-05-06T05:13:39.432Z,10.02
2023-05-06T05:16:06.627Z,14.15
2023-05-06T05:18:38.290Z,11.00
2023-05-06T05:21:05.255Z,11.05
2023-05-06T05:23:32.640Z,11.93
2023-05-06T05:25:59.532Z,10.00
2023-05-06T05:28:29.432Z,11.05
2023-05-06T05:31:02.188Z,11.32
2023-05-06T05:33:28.866Z,7.60
2023-05-06T05:35:55.781Z,8.23
2023-05-06T05:38:22.413Z,10.10
2023-05-06T05:40:49.192Z,8.75
2023-05-06T05:43:15.939Z,6.57
2023-05-06T05:45:45.875Z,8.20
2023-05-06T05:48:12.512Z,7.95
2023-05-06T05:50:39.837Z,8.55
2023-05-06T05:53:06.752Z,7.05
2023-05-06T05:55:33.566Z,6.97
2023-05-06T05:58:00.417Z,10.90
2023-05-06T06:00:27.118Z,7.82
2023-05-06T06:02:53.829Z,7.00
2023-05-06T06:05:20.832Z,8.30
2023-05-06T06:07:54.043Z,6.72
2023-05-06T06:10:20.870Z,9.48
2023-05-06T06:12:47.691Z,7.95
2023-05-06T06:15:14.554Z,9.20
2023-05-06T06:17:41.649Z,9.35
2023-05-06T06:20:09.171Z,7.10
2023-05-06T06:22:35.964Z,6.90
2023-05-06T06:25:02.607Z,6.55
2023-05-06T06:27:29.523Z,6.78
2023-05-06T06:29:56.305Z,5.88
2023-05-06T06:32:23.092Z,5.35
2023-05-06T06:34:50.848Z,7.22
2023-05-06T06:37:17.755Z,5.57
2023-05-06T06:39:44.413Z,5.72
2023-05-06T06:42:11.160Z,5.45
2023-05-06T06:44:37.957Z,7.10
2023-05-06T06:47:04.833Z,9.52
2023-05-06T06:49:32.253Z,5.75
2023-05-06T06:51:58.972Z,5.15
2023-05-06T06:54:25.920Z,5.60
2023-05-06T06:56:58.537Z,6.50
2023-05-06T06:59:25.543Z,4.55
2023-05-06T07:01:52.172Z,5.53
2023-05-06T07:04:19.318Z,5.00
2023-05-06T07:06:46.545Z,4.25
2023-05-06T07:09:13.481Z,4.57
2023-05-06T07:11:40.362Z,6.28
2023-05-06T07:14:07.356Z,4.72
2023-05-06T07:16:34.330Z,6.00
2023-05-06T07:19:01.394Z,5.00
2023-05-06T07:21:28.470Z,5.10
2023-05-06T07:23:55.277Z,4.18
2023-05-06T07:26:22.124Z,4.53
2023-05-06T07:28:49.048Z,6.35
2023-05-06T07:31:16.444Z,8.30
2023-05-06T07:33:43.162Z,5.25
2023-05-06T07:36:10.168Z,5.80
2023-05-06T07:38:36.950Z,4.03
2023-05-06T07:41:03.821Z,4.82
2023-05-06T07:43:30.540Z,4.72
2023-05-06T07:46:02.886Z,3.83
2023-05-06T07:48:31.081Z,5.78
2023-05-06T07:50:58.088Z,3.45
2023-05-06T07:53:25.103Z,4.28
2023-05-06T07:55:53.312Z,4.28
2023-05-06T07:58:20.328Z,5.15
2023-05-06T08:00:47.012Z,4.60
2023-05-06T08:03:17.272Z,4.53
2023-05-06T08:05:44.390Z,3.10
2023-05-06T08:08:11.147Z,7.85
2023-05-06T08:10:38.579Z,2.90
2023-05-06T08:13:05.533Z,5.22
2023-05-06T08:15:32.856Z,4.82
2023-05-06T08:18:06.979Z,3.72
2023-05-06T08:20:42.625Z,2.53
2023-05-06T08:23:09.986Z,2.83
2023-05-06T08:25:36.892Z,3.35
2023-05-06T08:28:04.791Z,3.95
2023-05-06T08:30:31.724Z,2.60
2023-05-06T08:32:58.422Z,2.50
2023-05-06T08:35:25.467Z,2.72
2023-05-06T08:37:52.130Z,3.33
2023-05-06T08:40:22.534Z,6.80
2023-05-06T08:43:03.577Z,5.55
2023-05-06T08:48:54.969Z,4.22
2023-05-06T08:51:29.457Z,4.10
2023-05-06T08:54:02.616Z,4.70
2023-05-06T08:56:32.933Z,5.00
2023-05-06T08:59:01.526Z,3.35
2023-05-06T09:01:29.037Z,2.35
2023-05-06T09:03:58.269Z,2.35
2023-05-06T09:06:25.390Z,3.35
2023-05-06T09:08:52.190Z,2.83
2023-05-06T09:11:29.818Z,5.80
2023-05-06T09:14:17.590Z,4.22
2023-05-06T09:16:47.833Z,5.18
2023-05-06T09:19:15.921Z,2.35
2023-05-06T09:21:45.069Z,2.28
2023-05-06T09:24:13.486Z,4.13
2023-05-06T09:26:41.754Z,2.55
2023-05-06T09:29:08.945Z,3.58
2023-05-06T09:31:41.991Z,6.68
2023-05-06T09:34:09.087Z,2.28
2023-05-06T09:36:36.620Z,2.80
2023-05-06T09:39:04.764Z,2.30
2023-05-06T09:41:31.627Z,4.45
2023-05-06T09:43:59.344Z,2.13
2023-05-06T09:46:28.020Z,2.80
2023-05-06T09:48:58.038Z,3.25
2023-05-06T09:51:27.819Z,3.20
2023-05-06T09:53:56.668Z,4.38
2023-05-06T09:56:23.905Z,2.92
2023-05-06T09:58:52.555Z,3.25
2023-05-06T10:01:32.696Z,3.42
2023-05-06T10:04:06.276Z,2.83
2023-05-06T10:06:35.804Z,4.40
2023-05-06T10:09:02.777Z,2.58
2023-05-06T10:11:31.890Z,3.78
2023-05-06T10:14:00.687Z,2.50
2023-05-06T10:16:28.671Z,2.40
2023-05-06T10:18:56.128Z,2.20
2023-05-06T10:21:27.650Z,1.92
2023-05-06T10:24:07.249Z,2.42
2023-05-06T10:26:37.702Z,2.65
2023-05-06T10:29:09.962Z,2.75
2023-05-06T10:31:45.301Z,4.07
2023-05-06T10:34:12.502Z,2.90
2023-05-06T10:36:42.110Z,4.20
2023-05-06T10:39:10.450Z,2.28
2023-05-06T10:41:37.821Z,3.58
2023-05-06T10:44:06.188Z,3.33
2023-05-06T10:47:05.917Z,2.40
2023-05-06T10:49:32.647Z,4.95
2023-05-06T10:52:15.302Z,2.30
2023-05-06T10:54:52.088Z,1.90
2023-05-06T10:57:22.043Z,2.63
2023-05-06T10:59:49.291Z,2.10
2023-05-06T11:02:20.007Z,3.15
2023-05-06T11:04:52.576Z,5.03
2023-05-06T11:07:23.610Z,2.42
2023-05-06T11:09:59.114Z,4.18
2023-05-06T11:12:52.590Z,2.88
2023-05-06T11:15:26.863Z,3.85
2023-05-06T11:17:57.083Z,2.22
2023-05-06T11:20:26.574Z,2.25
2023-05-06T11:22:54.112Z,5.53
2023-05-06T11:25:41.382Z,1.88
2023-05-06T11:28:10.500Z,3.95
2023-05-06T11:30:41.268Z,4.07
2023-05-06T11:33:09.580Z,2.15
2023-05-06T11:35:37.994Z,2.78
2023-05-06T11:38:04.972Z,4.15
2023-05-06T11:40:32.321Z,2.25
2023-05-06T11:43:15.248Z,4.13
2023-05-06T11:45:44.953Z,2.95
2023-05-06T11:48:15.929Z,2.97
2023-05-06T11:50:47.766Z,4.32
2023-05-06T11:53:17.132Z,2.50
2023-05-06T11:55:45.082Z,3.92
2023-05-06T11:58:16.867Z,3.13
2023-05-06T12:00:53.037Z,2.60
2023-05-06T12:03:21.050Z,2.67
2023-05-06T12:05:49.035Z,8.52
2023-05-06T12:08:26.609Z,5.90
2023-05-06T12:10:58.112Z,2.67
2023-05-06T12:13:25.109Z,2.22
2023-05-06T12:15:55.117Z,3.65
2023-05-06T12:18:23.685Z,2.65
2023-05-06T12:20:50.547Z,2.20
2023-05-06T12:23:37.376Z,2.00
2023-05-06T12:26:06.358Z,4.18
2023-05-06T12:28:36.378Z,1.98
2023-05-06T12:31:19.520Z,3.40
2023-05-06T12:33:49.160Z,3.20
2023-05-06T12:36:16.539Z,3.35
2023-05-06T12:39:13.145Z,3.80
2023-05-06T12:41:42.512Z,3.22
2023-05-06T12:44:35.444Z,2.85
2023-05-06T12:47:23.747Z,5.30
2023-05-06T12:49:59.280Z,3.92
2023-05-06T12:52:29.661Z,4.72
2023-05-06T12:54:57.221Z,4.25
2023-05-06T12:57:24.379Z,4.53
2023-05-06T12:59:51.085Z,5.32
2023-05-06T13:02:17.933Z,6.28
2023-05-06T13:04:46.941Z,2.13
2023-05-06T13:07:13.866Z,2.10
2023-05-06T13:09:42.287Z,2.53
2023-05-06T13:12:09.243Z,3.75
2023-05-06T13:14:38.441Z,1.80
2023-05-06T13:17:07.172Z,2.72
2023-05-06T13:19:34.593Z,2.67
2023-05-06T13:22:02.083Z,3.17
2023-05-06T13:24:29.681Z,3.47
2023-05-06T13:26:57.597Z,2.22
2023-05-06T13:29:24.832Z,2.55
2023-05-06T13:31:52.171Z,3.22
2023-05-06T13:34:21.638Z,3.97
2023-05-06T13:36:49.564Z,2.53
2023-05-06T13:39:17.005Z,2.80
2023-05-06T13:41:49.896Z,2.30
2023-05-06T13:44:17.380Z,2.22
2023-05-06T13:46:46.222Z,2.47
2023-05-06T13:49:27.940Z,2.53
2023-05-06T13:51:54.752Z,2.28
2023-05-06T13:54:22.912Z,3.03
2023-05-06T13:56:49.818Z,3.20
2023-05-06T13:59:16.541Z,2.28
2023-05-06T14:01:43.592Z,2.78
2023-05-06T14:04:10.555Z,4.13
2023-05-06T14:06:38.254Z,3.35
2023-05-06T14:09:05.175Z,2.47
2023-05-06T14:11:32.072Z,2.95
2023-05-06T14:13:58.790Z,2.42
2023-05-06T14:16:27.091Z,2.17
2023-05-06T14:18:53.894Z,1.67
2023-05-06T14:21:20.989Z,5.05
2023-05-06T14:23:47.655Z,7.05
2023-05-06T14:26:14.494Z,2.55
2023-05-06T14:28:41.142Z,3.55
2023-05-06T14:31:08.293Z,3.35
2023-05-06T14:33:35.242Z,2.55
2023-05-06T14:36:03.528Z,5.25
2023-05-06T14:38:31.016Z,8.13
2023-05-06T14:40:59.459Z,1.92
2023-05-06T14:43:26.397Z,3.20
2023-05-06T14:45:54.686Z,1.80
2023-05-06T14:48:21.726Z,4.45
2023-05-06T14:50:48.518Z,2.25
2023-05-06T14:53:15.177Z,3.13
2023-05-06T14:55:42.215Z,3.72
2023-05-06T14:58:09.173Z,2.97
2023-05-06T15:00:36.472Z,1.95
2023-05-06T15:03:03.518Z,4.55
2023-05-06T15:05:30.299Z,3.15
2023-05-06T15:08:10.452Z,3.55
2023-05-06T15:10:41.305Z,2.55
2023-05-06T15:13:11.152Z,2.35
2023-05-06T15:18:22.317Z,2.92
2023-05-06T15:21:08.030Z,2.50
2023-05-06T15:23:36.042Z,2.30
2023-05-06T15:26:27.042Z,6.00
2023-05-06T15:28:53.925Z,3.83
2023-05-06T15:31:20.687Z,1.70
2023-05-06T15:33:58.310Z,2.40
2023-05-06T15:36:27.678Z,3.63
2023-05-06T15:39:19.863Z,2.10
2023-05-06T15:41:48.290Z,2.78
2023-05-06T15:44:16.396Z,2.95
2023-05-06T15:46:43.649Z,3.00
2023-05-06T15:49:31.936Z,4.35
2023-05-06T15:52:00.571Z,4.07
2023-05-06T15:54:28.073Z,3.17
2023-05-06T15:56:55.188Z,2.13
2023-05-06T15:59:22.020Z,2.10
2023-05-06T16:04:19.373Z,4.03
2023-05-06T16:06:46.287Z,5.15
2023-05-06T16:09:13.235Z,3.15
2023-05-06T16:11:42.251Z,2.85
2023-05-06T16:14:15.481Z,3.53
2023-05-06T16:16:42.535Z,2.40
2023-05-06T16:19:17.751Z,5.38
2023-05-06T16:21:44.614Z,5.38
2023-05-06T16:24:11.381Z,2.40
2023-05-06T16:26:47.348Z,4.50
2023-05-06T16:29:16.246Z,3.25
2023-05-06T16:31:43.393Z,2.97
2023-05-06T16:34:10.346Z,4.38
2023-05-06T16:36:40.292Z,2.85
2023-05-06T16:39:08.396Z,3.50
2023-05-06T16:41:35.298Z,3.25
2023-05-06T16:44:09.367Z,2.72
2023-05-06T16:46:36.162Z,2.97
2023-05-06T16:49:06.594Z,3.17
2023-05-06T16:51:33.476Z,3.38
2023-05-06T16:54:00.209Z,3.30
2023-05-06T16:56:32.940Z,2.85
2023-05-06T16:59:13.250Z,2.45
2023-05-06T17:01:40.169Z,3.28
2023-05-06T17:04:07.070Z,2.90
2023-05-06T17:06:34.097Z,2.78
2023-05-06T17:09:07.048Z,4.47
2023-05-06T17:11:33.932Z,3.33
2023-05-06T17:14:01.053Z,2.88
2023-05-06T17:16:28.022Z,2.60
2023-05-06T17:19:01.810Z,6.15
2023-05-06T17:21:29.857Z,5.28
2023-05-06T17:23:56.508Z,4.85
2023-05-06T17:26:23.225Z,2.22
2023-05-06T17:28:51.122Z,5.72
2023-05-06T17:31:18.455Z,4.22
2023-05-06T17:33:52.959Z,7.82
2023-05-06T17:39:05.058Z,4.82
2023-05-06T17:41:32.386Z,4.82
2023-05-06T17:43:59.772Z,4.47
2023-05-06T17:46:27.005Z,6.15
2023-05-06T17:51:37.120Z,5.03
2023-05-06T17:54:03.990Z,4.88
2023-05-06T17:56:31.051Z,5.63
2023-05-06T17:59:05.026Z,5.38
2023-05-06T18:01:32.517Z,5.82
2023-05-06T18:04:03.925Z,4.55
2023-05-06T18:06:31.319Z,4.38
2023-05-06T18:09:00.846Z,3.67
2023-05-06T18:11:28.041Z,6.40
2023-05-06T18:13:54.819Z,5.53
2023-05-06T18:16:21.864Z,5.18
2023-05-06T18:18:59.696Z,6.28
2023-05-06T18:21:37.429Z,5.15
2023-05-06T18:24:16.138Z,6.25
2023-05-06T18:26:46.046Z,8.07
2023-05-06T18:29:13.500Z,5.95
2023-05-06T18:31:40.364Z,4.82
2023-05-06T18:34:07.424Z,5.40
2023-05-06T18:36:37.927Z,6.13
2023-05-06T18:39:05.000Z,7.05
2023-05-06T18:41:33.245Z,4.50
2023-05-06T18:44:00.507Z,4.13
2023-05-06T18:46:27.806Z,4.75
2023-05-06T18:48:58.177Z,4.68
2023-05-06T18:51:25.253Z,7.60
2023-05-06T18:53:53.876Z,5.43
2023-05-06T18:56:21.555Z,4.18
2023-05-06T18:58:53.111Z,4.28
2023-05-06T19:01:21.406Z,4.75
2023-05-06T19:03:49.701Z,7.85
2023-05-06T19:06:21.285Z,4.47
2023-05-06T19:08:48.882Z,5.55
2023-05-06T19:11:20.858Z,6.30
2023-05-06T19:13:48.443Z,5.07
2023-05-06T19:16:15.576Z,4.35
2023-05-06T19:18:44.824Z,4.15
2023-05-06T19:21:13.048Z,5.45
2023-05-06T19:23:40.000Z,3.40
2023-05-06T19:26:15.025Z,4.50
2023-05-06T19:28:45.584Z,4.35
2023-05-06T19:31:15.540Z,4.70
2023-05-06T19:33:45.861Z,4.72
2023-05-06T19:36:16.431Z,5.15
2023-05-06T19:38:43.788Z,4.60
2023-05-06T19:41:19.678Z,5.10
2023-05-06T19:43:47.241Z,5.95
2023-05-06T19:46:16.891Z,3.80
2023-05-06T19:48:45.273Z,4.57
2023-05-06T19:51:13.308Z,3.83
2023-05-06T19:53:40.630Z,4.82
2023-05-06T19:56:12.678Z,4.05
2023-05-06T19:58:40.752Z,3.85
2023-05-06T20:01:08.041Z,3.90
2023-05-06T20:03:41.764Z,4.28
2023-05-06T20:06:10.161Z,4.80
2023-05-06T20:08:46.360Z,5.82
2023-05-06T20:11:13.194Z,3.72
2023-05-06T20:13:43.926Z,4.60
2023-05-06T20:16:11.522Z,4.43
2023-05-06T20:18:40.680Z,3.28
2023-05-06T20:21:07.650Z,4.20
2023-05-06T20:23:34.454Z,3.28
2023-05-06T20:26:01.177Z,6.68
2023-05-06T20:28:28.309Z,3.83
2023-05-06T20:30:57.131Z,3.22
2023-05-06T20:33:23.845Z,3.80
2023-05-06T20:35:51.071Z,5.05
2023-05-06T20:38:20.224Z,4.70
2023-05-06T20:40:49.597Z,6.72
2023-05-06T20:43:17.408Z,5.47
2023-05-06T20:45:46.403Z,3.78
2023-05-06T20:48:15.001Z,4.60
2023-05-06T20:50:42.156Z,6.70
2023-05-06T20:53:22.971Z,5.50
2023-05-06T20:55:55.557Z,3.50
2023-05-06T20:58:29.654Z,3.47
2023-05-06T21:00:57.705Z,6.40
2023-05-06T21:03:25.900Z,3.55
2023-05-06T21:05:52.856Z,4.28
2023-05-06T21:08:20.789Z,3.72
2023-05-06T21:10:56.407Z,3.80
2023-05-06T21:13:23.897Z,3.13
2023-05-06T21:15:50.912Z,2.90
2023-05-06T21:18:40.631Z,4.55
2023-05-06T21:21:07.452Z,5.20
2023-05-06T21:23:35.738Z,4.47
2023-05-06T21:26:02.595Z,5.35
2023-05-06T21:28:29.377Z,3.22
2023-05-06T21:30:56.260Z,3.95
2023-05-06T21:33:23.095Z,3.00
2023-05-06T21:35:52.861Z,3.30
2023-05-06T21:38:19.640Z,3.78
2023-05-06T21:40:46.503Z,4.68
2023-05-06T21:43:18.086Z,6.90
2023-05-06T21:45:45.078Z,7.05
2023-05-06T21:48:12.106Z,3.35
2023-05-06T21:50:43.618Z,3.38
2023-05-06T21:53:10.684Z,4.45
2023-05-06T21:55:37.642Z,3.78
2023-05-06T21:58:04.489Z,5.28
2023-05-06T22:00:31.326Z,7.60
2023-05-06T22:02:59.003Z,6.20
2023-05-06T22:05:26.192Z,5.05
2023-05-06T22:07:53.152Z,5.35
2023-05-06T22:10:20.176Z,4.93
2023-05-06T22:12:47.104Z,5.93
2023-05-06T22:15:17.645Z,10.63
2023-05-06T22:17:44.581Z,4.00
2023-05-06T22:20:11.702Z,7.68
2023-05-06T22:22:38.581Z,4.70
2023-05-06T22:25:06.040Z,3.83
2023-05-06T22:27:33.076Z,3.70
2023-05-06T22:30:00.180Z,3.53
2023-05-06T22:32:27.419Z,5.00
2023-05-06T22:34:54.350Z,5.20
2023-05-06T22:37:21.305Z,4.45
2023-05-06T22:39:51.506Z,9.43
2023-05-06T22:42:23.096Z,4.00
2023-05-06T22:44:53.788Z,6.28
2023-05-06T22:47:22.295Z,6.47
2023-05-06T22:49:51.082Z,4.72
2023-05-06T22:52:19.354Z,6.80
2023-05-06T22:54:46.203Z,4.03
2023-05-06T22:57:13.036Z,5.38
2023-05-06T22:59:39.949Z,7.85
2023-05-06T23:02:09.196Z,4.63
2023-05-06T23:04:35.953Z,4.45
2023-05-06T23:07:02.762Z,8.00
2023-05-06T23:09:29.481Z,5.18
2023-05-06T23:11:56.519Z,4.57
2023-05-06T23:14:23.446Z,5.07
2023-05-06T23:16:50.364Z,3.90
2023-05-06T23:19:17.255Z,4.68
2023-05-06T23:21:44.635Z,4.18
2023-05-06T23:24:14.508Z,4.22
2023-05-06T23:29:27.963Z,4.22
2023-05-06T23:31:54.763Z,3.67
2023-05-06T23:34:21.547Z,3.85
2023-05-06T23:36:48.469Z,6.85
2023-05-06T23:39:15.090Z,3.70
2023-05-06T23:41:42.095Z,3.42
2023-05-06T23:44:08.950Z,3.17
2023-05-06T23:46:35.817Z,4.78
2023-05-06T23:49:05.878Z,4.70
2023-05-06T23:51:32.905Z,3.70
2023-05-06T23:53:59.569Z,3.00
2023-05-06T23:56:33.327Z,3.67
2023-05-06T23:59:00.081Z,3.58
